sensor_id;sensor_type;location;lat;lon;timestamp;P1;durP1;ratioP1;P2;durP2;ratioP2
70312;SDS011;57723;51.698;5.344;2024-03-06T00:01:15;3.20;;;1.40;;
70312;SDS011;57723;51.698;5.344;2024-03-06T00:03:40;3.43;;;1.53;;
70312;SDS011;57723;51.698;5.344;2024-03-06T00:06:05;4.37;;;1.73;;
70312;SDS011;57723;51.698;5.344;2024-03-06T00:08:31;2.70;;;1.33;;
70312;SDS011;57723;51.698;5.344;2024-03-06T00:10:56;4.07;;;1.47;;
70312;SDS011;57723;51.698;5.344;2024-03-06T00:13:21;4.57;;;1.33;;
70312;SDS011;57723;51.698;5.344;2024-03-06T00:15:46;6.17;;;1.40;;
70312;SDS011;57723;51.698;5.344;2024-03-06T00:18:15;3.90;;;1.38;;
70312;SDS011;57723;51.698;5.344;2024-03-06T00:20:40;2.70;;;1.50;;
70312;SDS011;57723;51.698;5.344;2024-03-06T00:23:07;3.05;;;1.52;;
70312;SDS011;57723;51.698;5.344;2024-03-06T00:25:32;3.10;;;1.50;;
70312;SDS011;57723;51.698;5.344;2024-03-06T00:27:57;4.77;;;1.50;;
70312;SDS011;57723;51.698;5.344;2024-03-06T00:30:23;4.57;;;1.53;;
70312;SDS011;57723;51.698;5.344;2024-03-06T00:32:48;3.97;;;1.43;;
70312;SDS011;57723;51.698;5.344;2024-03-06T00:35:14;3.93;;;1.67;;
70312;SDS011;57723;51.698;5.344;2024-03-06T00:37:39;4.97;;;1.65;;
70312;SDS011;57723;51.698;5.344;2024-03-06T00:40:07;2.87;;;1.53;;
70312;SDS011;57723;51.698;5.344;2024-03-06T00:42:33;7.43;;;1.70;;
70312;SDS011;57723;51.698;5.344;2024-03-06T00:45:00;2.80;;;1.48;;
70312;SDS011;57723;51.698;5.344;2024-03-06T00:47:27;2.63;;;1.40;;
70312;SDS011;57723;51.698;5.344;2024-03-06T00:49:52;2.50;;;1.30;;
70312;SDS011;57723;51.698;5.344;2024-03-06T00:52:18;2.87;;;1.40;;
70312;SDS011;57723;51.698;5.344;2024-03-06T00:54:43;3.97;;;1.40;;
70312;SDS011;57723;51.698;5.344;2024-03-06T00:57:09;6.30;;;1.55;;
70312;SDS011;57723;51.698;5.344;2024-03-06T00:59:35;4.90;;;1.55;;
70312;SDS011;57723;51.698;5.344;2024-03-06T01:02:00;3.20;;;1.60;;
70312;SDS011;57723;51.698;5.344;2024-03-06T01:04:25;5.43;;;1.50;;
70312;SDS011;57723;51.698;5.344;2024-03-06T01:06:51;3.87;;;1.70;;
70312;SDS011;57723;51.698;5.344;2024-03-06T01:09:16;3.83;;;1.40;;
70312;SDS011;57723;51.698;5.344;2024-03-06T01:11:42;5.72;;;1.55;;
70312;SDS011;57723;51.698;5.344;2024-03-06T01:14:07;4.80;;;1.43;;
70312;SDS011;57723;51.698;5.344;2024-03-06T01:16:32;2.83;;;1.60;;
70312;SDS011;57723;51.698;5.344;2024-03-06T01:18:58;3.63;;;1.73;;
70312;SDS011;57723;51.698;5.344;2024-03-06T01:21:23;2.23;;;1.37;;
70312;SDS011;57723;51.698;5.344;2024-03-06T01:23:48;5.90;;;1.43;;
70312;SDS011;57723;51.698;5.344;2024-03-06T01:26:14;3.70;;;1.60;;
70312;SDS011;57723;51.698;5.344;2024-03-06T01:28:39;3.93;;;1.47;;
70312;SDS011;57723;51.698;5.344;2024-03-06T01:31:05;2.60;;;1.50;;
70312;SDS011;57723;51.698;5.344;2024-03-06T01:33:31;3.03;;;1.48;;
70312;SDS011;57723;51.698;5.344;2024-03-06T01:35:57;3.57;;;1.57;;
70312;SDS011;57723;51.698;5.344;2024-03-06T01:38:22;2.85;;;1.30;;
70312;SDS011;57723;51.698;5.344;2024-03-06T01:40:48;4.38;;;1.42;;
70312;SDS011;57723;51.698;5.344;2024-03-06T01:43:21;3.87;;;1.60;;
70312;SDS011;57723;51.698;5.344;2024-03-06T01:45:47;2.80;;;1.65;;
70312;SDS011;57723;51.698;5.344;2024-03-06T01:48:14;3.75;;;1.40;;
70312;SDS011;57723;51.698;5.344;2024-03-06T01:50:41;3.10;;;1.77;;
70312;SDS011;57723;51.698;5.344;2024-03-06T01:53:06;2.93;;;1.50;;
70312;SDS011;57723;51.698;5.344;2024-03-06T01:55:32;2.92;;;1.52;;
70312;SDS011;57723;51.698;5.344;2024-03-06T01:57:58;3.65;;;1.50;;
70312;SDS011;57723;51.698;5.344;2024-03-06T02:00:23;2.73;;;1.40;;
70312;SDS011;57723;51.698;5.344;2024-03-06T02:02:48;3.13;;;1.50;;
70312;SDS011;57723;51.698;5.344;2024-03-06T02:05:14;4.03;;;1.80;;
70312;SDS011;57723;51.698;5.344;2024-03-06T02:07:39;3.87;;;1.77;;
70312;SDS011;57723;51.698;5.344;2024-03-06T02:10:08;3.28;;;1.58;;
70312;SDS011;57723;51.698;5.344;2024-03-06T02:12:35;3.40;;;1.85;;
70312;SDS011;57723;51.698;5.344;2024-03-06T02:15:00;2.97;;;1.65;;
70312;SDS011;57723;51.698;5.344;2024-03-06T02:17:28;2.97;;;1.50;;
70312;SDS011;57723;51.698;5.344;2024-03-06T02:19:54;4.43;;;1.65;;
70312;SDS011;57723;51.698;5.344;2024-03-06T02:22:19;2.87;;;1.67;;
70312;SDS011;57723;51.698;5.344;2024-03-06T02:24:47;5.18;;;3.00;;
70312;SDS011;57723;51.698;5.344;2024-03-06T02:27:13;4.00;;;1.55;;
70312;SDS011;57723;51.698;5.344;2024-03-06T02:29:41;2.80;;;1.70;;
70312;SDS011;57723;51.698;5.344;2024-03-06T02:32:07;3.77;;;1.73;;
70312;SDS011;57723;51.698;5.344;2024-03-06T02:34:33;3.90;;;1.73;;
70312;SDS011;57723;51.698;5.344;2024-03-06T02:36:58;2.37;;;1.53;;
70312;SDS011;57723;51.698;5.344;2024-03-06T02:39:24;3.13;;;1.50;;
70312;SDS011;57723;51.698;5.344;2024-03-06T02:41:49;5.87;;;1.97;;
70312;SDS011;57723;51.698;5.344;2024-03-06T02:44:15;3.70;;;1.67;;
70312;SDS011;57723;51.698;5.344;2024-03-06T02:46:46;3.38;;;1.70;;
70312;SDS011;57723;51.698;5.344;2024-03-06T02:49:12;4.38;;;1.90;;
70312;SDS011;57723;51.698;5.344;2024-03-06T02:51:37;4.30;;;1.50;;
70312;SDS011;57723;51.698;5.344;2024-03-06T02:54:03;5.63;;;1.60;;
70312;SDS011;57723;51.698;5.344;2024-03-06T02:56:29;3.67;;;1.83;;
70312;SDS011;57723;51.698;5.344;2024-03-06T02:58:54;4.10;;;1.50;;
70312;SDS011;57723;51.698;5.344;2024-03-06T03:01:20;4.03;;;1.40;;
70312;SDS011;57723;51.698;5.344;2024-03-06T03:03:46;2.73;;;1.60;;
70312;SDS011;57723;51.698;5.344;2024-03-06T03:06:12;3.92;;;1.50;;
70312;SDS011;57723;51.698;5.344;2024-03-06T03:08:38;2.78;;;1.60;;
70312;SDS011;57723;51.698;5.344;2024-03-06T03:11:04;3.70;;;1.60;;
70312;SDS011;57723;51.698;5.344;2024-03-06T03:13:30;2.72;;;1.58;;
70312;SDS011;57723;51.698;5.344;2024-03-06T03:15:56;2.77;;;1.67;;
70312;SDS011;57723;51.698;5.344;2024-03-06T03:18:21;2.83;;;1.50;;
70312;SDS011;57723;51.698;5.344;2024-03-06T03:20:47;7.93;;;1.90;;
70312;SDS011;57723;51.698;5.344;2024-03-06T03:23:13;5.07;;;1.63;;
70312;SDS011;57723;51.698;5.344;2024-03-06T03:25:40;3.13;;;1.60;;
70312;SDS011;57723;51.698;5.344;2024-03-06T03:28:06;3.63;;;1.73;;
70312;SDS011;57723;51.698;5.344;2024-03-06T03:30:31;4.63;;;2.00;;
70312;SDS011;57723;51.698;5.344;2024-03-06T03:32:57;5.10;;;1.77;;
70312;SDS011;57723;51.698;5.344;2024-03-06T03:35:22;3.65;;;1.67;;
70312;SDS011;57723;51.698;5.344;2024-03-06T03:37:51;3.03;;;1.70;;
70312;SDS011;57723;51.698;5.344;2024-03-06T03:40:17;5.93;;;1.52;;
70312;SDS011;57723;51.698;5.344;2024-03-06T03:42:43;3.63;;;1.58;;
70312;SDS011;57723;51.698;5.344;2024-03-06T03:45:09;3.30;;;1.60;;
70312;SDS011;57723;51.698;5.344;2024-03-06T03:47:34;3.35;;;1.65;;
70312;SDS011;57723;51.698;5.344;2024-03-06T03:49:59;4.33;;;1.80;;
70312;SDS011;57723;51.698;5.344;2024-03-06T03:52:25;2.63;;;1.57;;
70312;SDS011;57723;51.698;5.344;2024-03-06T03:54:50;4.97;;;1.70;;
70312;SDS011;57723;51.698;5.344;2024-03-06T03:57:16;4.53;;;2.27;;
70312;SDS011;57723;51.698;5.344;2024-03-06T03:59:42;4.03;;;1.63;;
70312;SDS011;57723;51.698;5.344;2024-03-06T04:02:11;3.72;;;1.80;;
70312;SDS011;57723;51.698;5.344;2024-03-06T04:04:36;4.50;;;1.90;;
70312;SDS011;57723;51.698;5.344;2024-03-06T04:07:04;4.33;;;1.77;;
70312;SDS011;57723;51.698;5.344;2024-03-06T04:09:31;3.20;;;1.80;;
70312;SDS011;57723;51.698;5.344;2024-03-06T04:11:57;3.55;;;2.00;;
70312;SDS011;57723;51.698;5.344;2024-03-06T04:14:23;5.43;;;2.00;;
70312;SDS011;57723;51.698;5.344;2024-03-06T04:16:49;3.55;;;1.70;;
70312;SDS011;57723;51.698;5.344;2024-03-06T04:19:15;5.07;;;1.88;;
70312;SDS011;57723;51.698;5.344;2024-03-06T04:21:41;4.70;;;1.80;;
70312;SDS011;57723;51.698;5.344;2024-03-06T04:24:07;6.25;;;1.90;;
70312;SDS011;57723;51.698;5.344;2024-03-06T04:26:36;3.03;;;1.80;;
70312;SDS011;57723;51.698;5.344;2024-03-06T04:29:01;3.45;;;1.80;;
70312;SDS011;57723;51.698;5.344;2024-03-06T04:31:28;5.88;;;2.00;;
70312;SDS011;57723;51.698;5.344;2024-03-06T04:33:53;3.10;;;1.70;;
70312;SDS011;57723;51.698;5.344;2024-03-06T04:36:18;2.67;;;1.77;;
70312;SDS011;57723;51.698;5.344;2024-03-06T04:38:44;2.87;;;1.80;;
70312;SDS011;57723;51.698;5.344;2024-03-06T04:41:18;5.97;;;2.10;;
70312;SDS011;57723;51.698;5.344;2024-03-06T04:43:44;5.35;;;1.80;;
70312;SDS011;57723;51.698;5.344;2024-03-06T04:46:13;4.13;;;1.80;;
70312;SDS011;57723;51.698;5.344;2024-03-06T04:48:39;3.03;;;1.90;;
70312;SDS011;57723;51.698;5.344;2024-03-06T04:51:05;4.03;;;2.00;;
70312;SDS011;57723;51.698;5.344;2024-03-06T04:53:30;2.70;;;1.70;;
70312;SDS011;57723;51.698;5.344;2024-03-06T04:55:56;3.80;;;2.00;;
70312;SDS011;57723;51.698;5.344;2024-03-06T04:58:21;3.30;;;1.90;;
70312;SDS011;57723;51.698;5.344;2024-03-06T05:00:47;4.60;;;1.73;;
70312;SDS011;57723;51.698;5.344;2024-03-06T05:03:12;3.57;;;1.83;;
70312;SDS011;57723;51.698;5.344;2024-03-06T05:05:37;4.53;;;1.80;;
70312;SDS011;57723;51.698;5.344;2024-03-06T05:08:04;4.00;;;1.83;;
70312;SDS011;57723;51.698;5.344;2024-03-06T05:10:30;3.70;;;1.92;;
70312;SDS011;57723;51.698;5.344;2024-03-06T05:12:56;3.35;;;1.92;;
70312;SDS011;57723;51.698;5.344;2024-03-06T05:15:21;2.37;;;1.60;;
70312;SDS011;57723;51.698;5.344;2024-03-06T05:17:47;4.53;;;2.00;;
70312;SDS011;57723;51.698;5.344;2024-03-06T05:20:12;3.20;;;1.87;;
70312;SDS011;57723;51.698;5.344;2024-03-06T05:22:38;4.33;;;1.93;;
70312;SDS011;57723;51.698;5.344;2024-03-06T05:25:03;3.77;;;2.00;;
70312;SDS011;57723;51.698;5.344;2024-03-06T05:27:32;3.22;;;1.83;;
70312;SDS011;57723;51.698;5.344;2024-03-06T05:29:57;3.00;;;1.83;;
70312;SDS011;57723;51.698;5.344;2024-03-06T05:32:23;5.17;;;2.10;;
70312;SDS011;57723;51.698;5.344;2024-03-06T05:34:48;3.92;;;2.10;;
70312;SDS011;57723;51.698;5.344;2024-03-06T05:37:14;3.33;;;1.93;;
70312;SDS011;57723;51.698;5.344;2024-03-06T05:39:40;3.92;;;1.83;;
70312;SDS011;57723;51.698;5.344;2024-03-06T05:42:07;4.28;;;1.80;;
70312;SDS011;57723;51.698;5.344;2024-03-06T05:44:33;2.95;;;1.80;;
70312;SDS011;57723;51.698;5.344;2024-03-06T05:46:59;3.28;;;1.92;;
70312;SDS011;57723;51.698;5.344;2024-03-06T05:49:26;4.45;;;1.90;;
70312;SDS011;57723;51.698;5.344;2024-03-06T05:51:52;3.42;;;2.28;;
70312;SDS011;57723;51.698;5.344;2024-03-06T05:54:18;3.33;;;1.80;;
70312;SDS011;57723;51.698;5.344;2024-03-06T05:56:44;3.90;;;1.83;;
70312;SDS011;57723;51.698;5.344;2024-03-06T05:59:09;3.03;;;1.73;;
70312;SDS011;57723;51.698;5.344;2024-03-06T06:01:35;4.50;;;1.80;;
70312;SDS011;57723;51.698;5.344;2024-03-06T06:04:00;3.63;;;2.00;;
70312;SDS011;57723;51.698;5.344;2024-03-06T06:06:26;3.37;;;1.90;;
70312;SDS011;57723;51.698;5.344;2024-03-06T06:08:52;7.00;;;2.00;;
70312;SDS011;57723;51.698;5.344;2024-03-06T06:11:18;3.28;;;1.90;;
70312;SDS011;57723;51.698;5.344;2024-03-06T06:13:44;3.28;;;1.70;;
70312;SDS011;57723;51.698;5.344;2024-03-06T06:16:10;5.20;;;1.90;;
70312;SDS011;57723;51.698;5.344;2024-03-06T06:18:35;4.70;;;1.97;;
70312;SDS011;57723;51.698;5.344;2024-03-06T06:21:01;5.88;;;2.38;;
70312;SDS011;57723;51.698;5.344;2024-03-06T06:23:28;3.07;;;1.90;;
70312;SDS011;57723;51.698;5.344;2024-03-06T06:25:54;3.05;;;1.95;;
70312;SDS011;57723;51.698;5.344;2024-03-06T06:28:19;3.40;;;2.00;;
70312;SDS011;57723;51.698;5.344;2024-03-06T06:30:44;4.23;;;1.97;;
70312;SDS011;57723;51.698;5.344;2024-03-06T06:33:10;3.53;;;2.03;;
70312;SDS011;57723;51.698;5.344;2024-03-06T06:35:35;3.57;;;1.93;;
70312;SDS011;57723;51.698;5.344;2024-03-06T06:38:01;5.43;;;2.43;;
70312;SDS011;57723;51.698;5.344;2024-03-06T06:40:26;4.93;;;1.90;;
70312;SDS011;57723;51.698;5.344;2024-03-06T06:42:53;7.20;;;1.90;;
70312;SDS011;57723;51.698;5.344;2024-03-06T06:45:18;6.77;;;2.27;;
70312;SDS011;57723;51.698;5.344;2024-03-06T06:47:44;5.50;;;2.13;;
70312;SDS011;57723;51.698;5.344;2024-03-06T06:50:10;5.67;;;1.93;;
70312;SDS011;57723;51.698;5.344;2024-03-06T06:52:37;9.82;;;2.20;;
70312;SDS011;57723;51.698;5.344;2024-03-06T06:55:03;5.72;;;1.80;;
70312;SDS011;57723;51.698;5.344;2024-03-06T06:57:29;4.67;;;2.20;;
70312;SDS011;57723;51.698;5.344;2024-03-06T06:59:54;3.60;;;2.00;;
70312;SDS011;57723;51.698;5.344;2024-03-06T07:02:20;4.00;;;2.37;;
70312;SDS011;57723;51.698;5.344;2024-03-06T07:04:45;6.67;;;1.90;;
70312;SDS011;57723;51.698;5.344;2024-03-06T07:07:11;3.90;;;2.10;;
70312;SDS011;57723;51.698;5.344;2024-03-06T07:09:36;4.78;;;2.00;;
70312;SDS011;57723;51.698;5.344;2024-03-06T07:12:01;4.47;;;2.00;;
70312;SDS011;57723;51.698;5.344;2024-03-06T07:14:28;3.25;;;1.90;;
70312;SDS011;57723;51.698;5.344;2024-03-06T07:16:53;3.40;;;2.10;;
70312;SDS011;57723;51.698;5.344;2024-03-06T07:19:19;8.23;;;1.90;;
70312;SDS011;57723;51.698;5.344;2024-03-06T07:21:45;3.30;;;2.00;;
70312;SDS011;57723;51.698;5.344;2024-03-06T07:24:10;5.63;;;2.10;;
70312;SDS011;57723;51.698;5.344;2024-03-06T07:26:36;3.90;;;1.90;;
70312;SDS011;57723;51.698;5.344;2024-03-06T07:29:01;10.97;;;2.27;;
70312;SDS011;57723;51.698;5.344;2024-03-06T07:31:27;12.05;;;2.42;;
70312;SDS011;57723;51.698;5.344;2024-03-06T07:33:52;4.30;;;1.83;;
70312;SDS011;57723;51.698;5.344;2024-03-06T07:36:18;5.63;;;2.50;;
70312;SDS011;57723;51.698;5.344;2024-03-06T07:38:44;4.40;;;2.20;;
70312;SDS011;57723;51.698;5.344;2024-03-06T07:41:10;5.18;;;2.40;;
70312;SDS011;57723;51.698;5.344;2024-03-06T07:43:36;4.63;;;2.30;;
70312;SDS011;57723;51.698;5.344;2024-03-06T07:46:03;4.55;;;2.25;;
70312;SDS011;57723;51.698;5.344;2024-03-06T07:48:41;5.90;;;2.42;;
70312;SDS011;57723;51.698;5.344;2024-03-06T07:51:07;4.07;;;2.30;;
70312;SDS011;57723;51.698;5.344;2024-03-06T07:53:33;6.65;;;2.17;;
70312;SDS011;57723;51.698;5.344;2024-03-06T07:55:58;6.18;;;2.42;;
70312;SDS011;57723;51.698;5.344;2024-03-06T07:58:23;6.60;;;2.80;;
70312;SDS011;57723;51.698;5.344;2024-03-06T08:00:52;4.00;;;2.27;;
70312;SDS011;57723;51.698;5.344;2024-03-06T08:03:21;3.72;;;2.25;;
70312;SDS011;57723;51.698;5.344;2024-03-06T08:05:47;3.65;;;2.05;;
70312;SDS011;57723;51.698;5.344;2024-03-06T08:08:13;5.00;;;2.07;;
70312;SDS011;57723;51.698;5.344;2024-03-06T08:10:38;4.63;;;2.50;;
70312;SDS011;57723;51.698;5.344;2024-03-06T08:13:15;5.03;;;2.30;;
70312;SDS011;57723;51.698;5.344;2024-03-06T08:15:41;4.03;;;2.10;;
70312;SDS011;57723;51.698;5.344;2024-03-06T08:18:09;4.80;;;2.20;;
70312;SDS011;57723;51.698;5.344;2024-03-06T08:20:34;5.75;;;2.45;;
70312;SDS011;57723;51.698;5.344;2024-03-06T08:23:04;5.70;;;2.40;;
70312;SDS011;57723;51.698;5.344;2024-03-06T08:25:29;7.90;;;2.10;;
70312;SDS011;57723;51.698;5.344;2024-03-06T08:27:58;4.00;;;2.10;;
70312;SDS011;57723;51.698;5.344;2024-03-06T08:30:24;3.73;;;2.27;;
70312;SDS011;57723;51.698;5.344;2024-03-06T08:32:49;4.03;;;2.40;;
70312;SDS011;57723;51.698;5.344;2024-03-06T08:35:16;3.67;;;2.00;;
70312;SDS011;57723;51.698;5.344;2024-03-06T08:37:43;4.10;;;2.22;;
70312;SDS011;57723;51.698;5.344;2024-03-06T08:40:09;6.07;;;2.03;;
70312;SDS011;57723;51.698;5.344;2024-03-06T08:42:45;3.83;;;2.15;;
70312;SDS011;57723;51.698;5.344;2024-03-06T08:45:12;3.20;;;2.20;;
70312;SDS011;57723;51.698;5.344;2024-03-06T08:47:39;5.40;;;2.05;;
70312;SDS011;57723;51.698;5.344;2024-03-06T08:50:04;3.67;;;2.10;;
70312;SDS011;57723;51.698;5.344;2024-03-06T08:52:32;3.88;;;1.95;;
70312;SDS011;57723;51.698;5.344;2024-03-06T08:54:57;4.63;;;2.20;;
70312;SDS011;57723;51.698;5.344;2024-03-06T08:57:22;6.00;;;2.30;;
70312;SDS011;57723;51.698;5.344;2024-03-06T08:59:49;4.85;;;2.15;;
70312;SDS011;57723;51.698;5.344;2024-03-06T09:02:17;4.63;;;2.20;;
70312;SDS011;57723;51.698;5.344;2024-03-06T09:04:43;4.32;;;2.15;;
70312;SDS011;57723;51.698;5.344;2024-03-06T09:07:12;3.88;;;2.13;;
70312;SDS011;57723;51.698;5.344;2024-03-06T09:09:42;4.22;;;2.30;;
70312;SDS011;57723;51.698;5.344;2024-03-06T09:12:08;7.35;;;2.17;;
70312;SDS011;57723;51.698;5.344;2024-03-06T09:14:43;5.35;;;2.78;;
70312;SDS011;57723;51.698;5.344;2024-03-06T09:17:10;4.53;;;2.13;;
70312;SDS011;57723;51.698;5.344;2024-03-06T09:19:38;5.72;;;2.30;;
70312;SDS011;57723;51.698;5.344;2024-03-06T09:22:04;4.38;;;2.28;;
70312;SDS011;57723;51.698;5.344;2024-03-06T09:24:30;4.70;;;2.17;;
70312;SDS011;57723;51.698;5.344;2024-03-06T09:26:56;4.80;;;2.40;;
70312;SDS011;57723;51.698;5.344;2024-03-06T09:29:21;3.53;;;1.97;;
70312;SDS011;57723;51.698;5.344;2024-03-06T09:31:47;4.07;;;2.30;;
70312;SDS011;57723;51.698;5.344;2024-03-06T09:34:23;3.83;;;2.30;;
70312;SDS011;57723;51.698;5.344;2024-03-06T09:36:49;4.18;;;2.35;;
70312;SDS011;57723;51.698;5.344;2024-03-06T09:39:15;4.97;;;2.22;;
70312;SDS011;57723;51.698;5.344;2024-03-06T09:41:46;5.35;;;2.33;;
70312;SDS011;57723;51.698;5.344;2024-03-06T09:44:12;5.45;;;2.28;;
70312;SDS011;57723;51.698;5.344;2024-03-06T09:46:40;4.75;;;2.20;;
70312;SDS011;57723;51.698;5.344;2024-03-06T09:49:06;7.80;;;2.50;;
70312;SDS011;57723;51.698;5.344;2024-03-06T09:51:32;6.13;;;2.40;;
70312;SDS011;57723;51.698;5.344;2024-03-06T09:53:58;5.65;;;2.40;;
70312;SDS011;57723;51.698;5.344;2024-03-06T09:56:23;5.43;;;2.73;;
70312;SDS011;57723;51.698;5.344;2024-03-06T09:58:54;5.32;;;2.63;;
70312;SDS011;57723;51.698;5.344;2024-03-06T10:01:25;6.60;;;2.70;;
70312;SDS011;57723;51.698;5.344;2024-03-06T10:03:53;4.03;;;2.30;;
70312;SDS011;57723;51.698;5.344;2024-03-06T10:06:18;5.53;;;2.73;;
70312;SDS011;57723;51.698;5.344;2024-03-06T10:08:45;6.25;;;2.47;;
70312;SDS011;57723;51.698;5.344;2024-03-06T10:11:11;5.68;;;2.50;;
70312;SDS011;57723;51.698;5.344;2024-03-06T10:13:37;7.18;;;2.33;;
70312;SDS011;57723;51.698;5.344;2024-03-06T10:16:03;4.77;;;2.50;;
70312;SDS011;57723;51.698;5.344;2024-03-06T10:18:32;4.25;;;2.45;;
70312;SDS011;57723;51.698;5.344;2024-03-06T10:20:58;4.95;;;2.25;;
70312;SDS011;57723;51.698;5.344;2024-03-06T10:23:26;6.50;;;2.30;;
70312;SDS011;57723;51.698;5.344;2024-03-06T10:25:54;5.13;;;2.33;;
70312;SDS011;57723;51.698;5.344;2024-03-06T10:28:22;4.93;;;2.50;;
70312;SDS011;57723;51.698;5.344;2024-03-06T10:30:49;6.40;;;2.20;;
70312;SDS011;57723;51.698;5.344;2024-03-06T10:33:15;8.30;;;2.58;;
70312;SDS011;57723;51.698;5.344;2024-03-06T10:35:42;3.60;;;2.17;;
70312;SDS011;57723;51.698;5.344;2024-03-06T10:38:08;5.65;;;2.50;;
70312;SDS011;57723;51.698;5.344;2024-03-06T10:40:34;6.88;;;2.50;;
70312;SDS011;57723;51.698;5.344;2024-03-06T10:43:01;4.37;;;2.30;;
70312;SDS011;57723;51.698;5.344;2024-03-06T10:45:32;5.57;;;2.35;;
70312;SDS011;57723;51.698;5.344;2024-03-06T10:48:05;5.22;;;2.40;;
70312;SDS011;57723;51.698;5.344;2024-03-06T10:50:32;4.97;;;2.20;;
70312;SDS011;57723;51.698;5.344;2024-03-06T10:52:59;5.10;;;2.50;;
70312;SDS011;57723;51.698;5.344;2024-03-06T10:55:25;6.60;;;2.20;;
70312;SDS011;57723;51.698;5.344;2024-03-06T10:57:53;3.83;;;2.30;;
70312;SDS011;57723;51.698;5.344;2024-03-06T11:00:22;6.97;;;2.70;;
70312;SDS011;57723;51.698;5.344;2024-03-06T11:02:48;4.95;;;2.70;;
70312;SDS011;57723;51.698;5.344;2024-03-06T11:05:16;7.03;;;2.58;;
70312;SDS011;57723;51.698;5.344;2024-03-06T11:07:42;4.88;;;2.70;;
70312;SDS011;57723;51.698;5.344;2024-03-06T11:10:08;7.22;;;2.50;;
70312;SDS011;57723;51.698;5.344;2024-03-06T11:12:41;4.00;;;2.40;;
70312;SDS011;57723;51.698;5.344;2024-03-06T11:15:10;7.32;;;2.40;;
70312;SDS011;57723;51.698;5.344;2024-03-06T11:17:38;5.07;;;2.70;;
70312;SDS011;57723;51.698;5.344;2024-03-06T11:28:03;4.40;;;2.30;;
70312;SDS011;57723;51.698;5.344;2024-03-06T11:30:28;6.15;;;2.38;;
70312;SDS011;57723;51.698;5.344;2024-03-06T11:32:59;5.03;;;2.20;;
70312;SDS011;57723;51.698;5.344;2024-03-06T11:35:28;4.22;;;2.33;;
70312;SDS011;57723;51.698;5.344;2024-03-06T11:37:54;5.00;;;2.30;;
70312;SDS011;57723;51.698;5.344;2024-03-06T11:40:26;4.00;;;2.00;;
70312;SDS011;57723;51.698;5.344;2024-03-06T11:42:52;5.18;;;2.35;;
70312;SDS011;57723;51.698;5.344;2024-03-06T11:45:17;3.97;;;2.20;;
70312;SDS011;57723;51.698;5.344;2024-03-06T11:48:05;4.55;;;2.28;;
70312;SDS011;57723;51.698;5.344;2024-03-06T11:50:30;5.88;;;2.20;;
70312;SDS011;57723;51.698;5.344;2024-03-06T11:52:57;5.40;;;2.25;;
70312;SDS011;57723;51.698;5.344;2024-03-06T11:55:22;5.65;;;2.60;;
70312;SDS011;57723;51.698;5.344;2024-03-06T11:57:50;3.90;;;2.20;;
70312;SDS011;57723;51.698;5.344;2024-03-06T12:00:16;4.57;;;2.40;;
70312;SDS011;57723;51.698;5.344;2024-03-06T12:02:41;3.57;;;2.10;;
70312;SDS011;57723;51.698;5.344;2024-03-06T12:05:07;5.88;;;2.60;;
70312;SDS011;57723;51.698;5.344;2024-03-06T12:07:51;4.88;;;2.50;;
70312;SDS011;57723;51.698;5.344;2024-03-06T12:10:17;5.20;;;2.67;;
70312;SDS011;57723;51.698;5.344;2024-03-06T12:12:43;6.05;;;2.55;;
70312;SDS011;57723;51.698;5.344;2024-03-06T12:15:10;5.50;;;2.60;;
70312;SDS011;57723;51.698;5.344;2024-03-06T12:17:45;4.70;;;2.45;;
70312;SDS011;57723;51.698;5.344;2024-03-06T12:20:15;6.25;;;2.60;;
70312;SDS011;57723;51.698;5.344;2024-03-06T12:22:50;5.27;;;2.40;;
70312;SDS011;57723;51.698;5.344;2024-03-06T12:25:19;7.47;;;2.90;;
70312;SDS011;57723;51.698;5.344;2024-03-06T12:27:48;4.87;;;2.70;;
70312;SDS011;57723;51.698;5.344;2024-03-06T12:30:17;6.55;;;2.80;;
70312;SDS011;57723;51.698;5.344;2024-03-06T12:32:43;4.40;;;2.53;;
70312;SDS011;57723;51.698;5.344;2024-03-06T12:35:09;5.75;;;2.47;;
70312;SDS011;57723;51.698;5.344;2024-03-06T12:37:34;5.73;;;2.50;;
70312;SDS011;57723;51.698;5.344;2024-03-06T12:40:00;8.50;;;3.13;;
70312;SDS011;57723;51.698;5.344;2024-03-06T12:42:26;5.23;;;2.70;;
70312;SDS011;57723;51.698;5.344;2024-03-06T12:44:53;5.20;;;2.78;;
70312;SDS011;57723;51.698;5.344;2024-03-06T12:47:19;6.80;;;2.72;;
70312;SDS011;57723;51.698;5.344;2024-03-06T12:49:47;5.07;;;2.50;;
70312;SDS011;57723;51.698;5.344;2024-03-06T12:52:12;5.30;;;2.67;;
70312;SDS011;57723;51.698;5.344;2024-03-06T12:54:38;4.25;;;2.47;;
70312;SDS011;57723;51.698;5.344;2024-03-06T12:57:04;5.07;;;2.70;;
70312;SDS011;57723;51.698;5.344;2024-03-06T12:59:32;3.87;;;2.40;;
70312;SDS011;57723;51.698;5.344;2024-03-06T13:01:57;4.35;;;2.60;;
70312;SDS011;57723;51.698;5.344;2024-03-06T13:04:22;6.33;;;2.73;;
70312;SDS011;57723;51.698;5.344;2024-03-06T13:06:47;3.83;;;2.53;;
70312;SDS011;57723;51.698;5.344;2024-03-06T13:09:16;5.18;;;2.67;;
70312;SDS011;57723;51.698;5.344;2024-03-06T13:11:41;12.98;;;3.40;;
70312;SDS011;57723;51.698;5.344;2024-03-06T13:14:08;5.00;;;2.25;;
70312;SDS011;57723;51.698;5.344;2024-03-06T13:16:36;4.47;;;2.40;;
70312;SDS011;57723;51.698;5.344;2024-03-06T13:19:02;4.23;;;2.73;;
70312;SDS011;57723;51.698;5.344;2024-03-06T13:21:28;5.43;;;2.85;;
70312;SDS011;57723;51.698;5.344;2024-03-06T13:23:56;5.57;;;3.00;;
70312;SDS011;57723;51.698;5.344;2024-03-06T13:26:22;4.80;;;2.50;;
70312;SDS011;57723;51.698;5.344;2024-03-06T13:28:47;6.15;;;2.40;;
70312;SDS011;57723;51.698;5.344;2024-03-06T13:31:13;7.03;;;2.25;;
70312;SDS011;57723;51.698;5.344;2024-03-06T13:33:42;5.90;;;2.33;;
70312;SDS011;57723;51.698;5.344;2024-03-06T13:36:08;3.92;;;2.50;;
70312;SDS011;57723;51.698;5.344;2024-03-06T13:38:34;4.20;;;2.45;;
70312;SDS011;57723;51.698;5.344;2024-03-06T13:40:59;4.77;;;2.30;;
70312;SDS011;57723;51.698;5.344;2024-03-06T13:43:27;3.75;;;2.47;;
70312;SDS011;57723;51.698;5.344;2024-03-06T13:45:53;3.90;;;2.35;;
70312;SDS011;57723;51.698;5.344;2024-03-06T13:48:19;3.78;;;2.47;;
70312;SDS011;57723;51.698;5.344;2024-03-06T13:50:45;4.03;;;2.40;;
70312;SDS011;57723;51.698;5.344;2024-03-06T13:53:11;3.67;;;2.40;;
70312;SDS011;57723;51.698;5.344;2024-03-06T13:55:37;4.75;;;2.50;;
70312;SDS011;57723;51.698;5.344;2024-03-06T13:58:05;6.45;;;2.60;;
70312;SDS011;57723;51.698;5.344;2024-03-06T14:00:30;4.37;;;2.40;;
70312;SDS011;57723;51.698;5.344;2024-03-06T14:02:56;6.03;;;2.40;;
70312;SDS011;57723;51.698;5.344;2024-03-06T14:05:21;3.70;;;2.22;;
70312;SDS011;57723;51.698;5.344;2024-03-06T14:07:52;4.20;;;2.40;;
70312;SDS011;57723;51.698;5.344;2024-03-06T14:10:18;3.50;;;2.40;;
70312;SDS011;57723;51.698;5.344;2024-03-06T14:12:45;4.30;;;2.20;;
70312;SDS011;57723;51.698;5.344;2024-03-06T14:15:11;3.57;;;2.27;;
70312;SDS011;57723;51.698;5.344;2024-03-06T14:17:41;5.20;;;2.30;;
70312;SDS011;57723;51.698;5.344;2024-03-06T14:20:07;4.03;;;2.30;;
70312;SDS011;57723;51.698;5.344;2024-03-06T14:22:32;5.30;;;2.88;;
70312;SDS011;57723;51.698;5.344;2024-03-06T14:24:58;4.00;;;2.30;;
70312;SDS011;57723;51.698;5.344;2024-03-06T14:27:23;4.47;;;2.57;;
70312;SDS011;57723;51.698;5.344;2024-03-06T14:29:52;4.57;;;2.55;;
70312;SDS011;57723;51.698;5.344;2024-03-06T14:32:19;4.40;;;2.45;;
70312;SDS011;57723;51.698;5.344;2024-03-06T14:34:44;4.47;;;2.23;;
70312;SDS011;57723;51.698;5.344;2024-03-06T14:37:10;3.42;;;2.20;;
70312;SDS011;57723;51.698;5.344;2024-03-06T14:39:38;4.18;;;2.20;;
70312;SDS011;57723;51.698;5.344;2024-03-06T14:42:03;4.57;;;2.47;;
70312;SDS011;57723;51.698;5.344;2024-03-06T14:44:31;4.47;;;2.30;;
70312;SDS011;57723;51.698;5.344;2024-03-06T14:46:57;5.20;;;2.60;;
70312;SDS011;57723;51.698;5.344;2024-03-06T14:49:22;3.45;;;2.38;;
70312;SDS011;57723;51.698;5.344;2024-03-06T14:51:47;5.22;;;2.13;;